Time;durP1;ratioP1;P1;durP2;ratioP2;P2;SDS_P1;SDS_P2;PMS_P1;PMS_P2;Temp;Humidity;BMP_temperature;BMP_pressure;BME280_temperature;BME280_humidity;BME280_pressure;Samples;Min_cycle;Max_cycle;Signal;HPM_P1;HPM_P2
2024/01/06 00:01:29;;;;;;;10.63;6.18;;;;;;;9.35;62.51;98721.75;4889646;29;20051;-84
2024/01/06 00:04:15;;;;;;;14.20;7.47;;;;;;;9.20;62.99;98720.38;4883073;29;20082;-82
2024/01/06 00:07:00;;;;;;;14.23;7.05;;;;;;;9.02;63.80;98723.16;4876450;29;20500;-83
2024/01/06 00:09:46;;;;;;;9.40;5.47;;;;;;;9.41;61.41;98712.84;4896837;29;20055;-83
2024/01/06 00:12:32;;;;;;;4.85;3.55;;;;;;;9.43;61.21;98708.09;4890518;29;20055;-83
2024/01/06 00:15:17;;;;;;;11.82;5.25;;;;;;;9.25;63.32;98711.72;4896920;29;20515;-81
2024/01/06 00:18:03;;;;;;;11.00;6.72;;;;;;;9.17;63.00;98707.56;4891446;29;20215;-82
2024/01/06 00:20:48;;;;;;;15.52;5.53;;;;;;;9.16;62.38;98713.94;4905536;29;20500;-82
2024/01/06 00:23:34;;;;;;;12.57;6.97;;;;;;;8.93;63.62;98716.59;4895516;29;20091;-83
2024/01/06 00:26:19;;;;;;;17.73;6.50;;;;;;;8.71;64.79;98724.28;4902839;29;20050;-84
2024/01/06 00:29:06;;;;;;;11.70;6.25;;;;;;;8.72;65.20;98734.69;4902955;29;20086;-81
2024/01/06 00:31:50;;;;;;;9.77;4.65;;;;;;;8.83;64.02;98719.00;4894656;29;20059;-84
2024/01/06 00:34:37;;;;;;;9.88;4.03;;;;;;;9.33;61.67;98706.03;4889033;29;20507;-83
2024/01/06 00:37:27;;;;;;;9.45;5.03;;;;;;;9.59;60.17;98711.84;4908508;29;20047;-82
2024/01/06 00:40:13;;;;;;;7.30;4.10;;;;;;;9.73;59.10;98710.56;4907980;29;20480;-83
2024/01/06 00:42:59;;;;;;;9.98;5.47;;;;;;;9.81;58.51;98704.06;4903771;29;20397;-81
2024/01/06 00:45:43;;;;;;;11.13;3.85;;;;;;;9.82;58.78;98711.00;4887879;29;20047;-82
2024/01/06 00:48:29;;;;;;;10.70;4.20;;;;;;;9.64;59.84;98722.56;4888948;29;20480;-81
2024/01/06 00:51:15;;;;;;;11.70;5.55;;;;;;;9.58;60.93;98723.53;4891610;29;20056;-83
2024/01/06 00:54:00;;;;;;;7.90;4.18;;;;;;;9.65;59.79;98716.22;4919705;29;20465;-81
2024/01/06 00:56:46;;;;;;;13.70;5.35;;;;;;;9.72;59.89;98716.91;4910722;29;20070;-82
2024/01/06 00:59:31;;;;;;;7.15;3.95;;;;;;;10.01;58.37;98708.94;4896007;29;20070;-82
2024/01/06 01:02:17;;;;;;;8.45;3.72;;;;;;;10.03;58.26;98728.06;4896978;29;20047;-83
2024/01/06 01:05:03;;;;;;;6.13;3.53;;;;;;;10.04;57.71;98711.94;4908549;29;20054;-84
2024/01/06 01:07:48;;;;;;;12.07;5.63;;;;;;;9.98;58.09;98718.19;4914462;29;21881;-82
2024/01/06 01:10:34;;;;;;;8.73;4.53;;;;;;;9.80;58.68;98702.44;4893497;29;20096;-82
2024/01/06 01:13:19;;;;;;;13.40;5.63;;;;;;;9.70;59.62;98695.91;4893389;29;20500;-83
2024/01/06 01:16:05;;;;;;;8.88;3.83;;;;;;;9.79;59.13;98696.34;4907441;29;20113;-82
2024/01/06 01:18:51;;;;;;;6.93;3.95;;;;;;;9.76;59.40;98690.72;4907405;29;20404;-83
2024/01/06 01:21:37;;;;;;;10.45;5.45;;;;;;;9.52;61.55;98682.81;4908512;29;20039;-83
2024/01/06 01:24:23;;;;;;;11.02;5.70;;;;;;;9.45;61.45;98684.81;4886502;29;20389;-82
2024/01/06 01:27:09;;;;;;;7.03;3.22;;;;;;;9.97;61.28;98684.72;4912150;29;20480;-83
2024/01/06 01:29:54;;;;;;;4.72;2.72;;;;;;;10.74;59.02;98673.50;4903482;29;20476;-85
2024/01/06 01:32:40;;;;;;;6.70;3.00;;;;;;;11.15;57.22;98686.53;4903433;29;20396;-85
2024/01/06 01:35:25;;;;;;;6.43;2.65;;;;;;;11.27;56.95;98687.22;4887158;29;20591;-81
2024/01/06 01:38:11;;;;;;;15.85;6.05;;;;;;;10.49;60.16;98683.75;4903069;29;20054;-83
2024/01/06 01:40:56;;;;;;;10.52;5.72;;;;;;;9.94;61.63;98680.69;4901048;29;20054;-83
2024/01/06 01:43:42;;;;;;;11.68;4.93;;;;;;;9.86;62.45;98674.97;4902270;29;20051;-83
2024/01/06 01:46:29;;;;;;;9.02;4.93;;;;;;;9.70;61.89;98666.72;4901173;29;20114;-83
2024/01/06 01:49:15;;;;;;;11.52;5.88;;;;;;;9.53;62.72;98665.06;4881054;29;20055;-85
2024/01/06 01:52:01;;;;;;;9.48;4.60;;;;;;;9.63;61.25;98666.06;4908755;29;20480;-85
2024/01/06 01:54:47;;;;;;;8.15;4.50;;;;;;;9.56;62.35;98661.94;4888141;29;20362;-84
2024/01/06 01:57:32;;;;;;;5.95;3.50;;;;;;;10.12;59.72;98657.63;4893961;29;20062;-85
2024/01/06 02:00:18;;;;;;;5.22;2.80;;;;;;;10.26;58.54;98652.81;4900697;29;20070;-86
2024/01/06 02:03:13;;;;;;;4.25;2.13;;;;;;;10.72;56.93;98649.03;4885424;29;20063;-83
2024/01/06 02:06:21;;;;;;;8.90;4.20;;;;;;;10.95;55.73;98660.50;4907092;29;20489;-84
2024/01/06 02:09:07;;;;;;;8.73;4.10;;;;;;;10.62;57.31;98649.69;4905867;29;20067;-84
2024/01/06 02:11:56;;;;;;;3.95;2.63;;;;;;;10.51;57.29;98634.63;4865538;29;20468;-83
2024/01/06 02:14:43;;;;;;;9.10;2.97;;;;;;;10.69;56.06;98643.41;4905745;29;20066;-84
2024/01/06 02:17:32;;;;;;;12.57;5.50;;;;;;;10.44;57.56;98628.69;4892517;29;20401;-84
2024/01/06 02:20:19;;;;;;;4.78;3.20;;;;;;;10.37;56.63;98617.41;4885930;29;20489;-84
2024/01/06 02:23:05;;;;;;;5.22;3.22;;;;;;;10.31;57.59;98611.25;4872886;29;20058;-84
2024/01/06 02:25:51;;;;;;;8.48;3.67;;;;;;;10.22;57.23;98603.91;4886146;29;20051;-82
2024/01/06 02:28:36;;;;;;;16.15;8.68;;;;;;;9.99;60.31;98616.25;4886216;29;20469;-83
2024/01/06 02:31:22;;;;;;;9.93;5.80;;;;;;;9.78;60.37;98612.47;4891742;29;20505;-81
2024/01/06 02:34:16;;;;;;;10.27;5.68;;;;;;;9.68;60.27;98618.41;4892512;29;20397;-84
2024/01/06 02:37:03;;;;;;;8.88;3.53;;;;;;;9.79;60.37;98616.72;4886594;29;20397;-82
2024/01/06 02:39:48;;;;;;;9.63;4.55;;;;;;;9.70;61.06;98611.00;4880973;29;20484;-83
2024/01/06 02:42:34;;;;;;;8.98;4.32;;;;;;;9.63;61.11;98623.63;4901080;29;20059;-85
2024/01/06 02:45:20;;;;;;;8.18;4.03;;;;;;;9.88;59.70;98610.00;4910300;29;20539;-82
2024/01/06 02:48:05;;;;;;;10.43;5.00;;;;;;;9.67;60.64;98619.44;4908040;29;20054;-84
2024/01/06 02:50:51;;;;;;;11.18;4.47;;;;;;;9.71;59.11;98619.75;4911306;29;20062;-83
2024/01/06 02:53:36;;;;;;;13.50;6.07;;;;;;;9.80;58.58;98628.16;4906274;29;20386;-84
2024/01/06 02:56:22;;;;;;;16.95;9.85;;;;;;;9.75;60.17;98618.25;4904108;29;20062;-82
2024/01/06 02:59:08;;;;;;;9.85;4.88;;;;;;;9.77;59.12;98618.81;4902983;29;20051;-82
2024/01/06 03:01:53;;;;;;;6.82;2.70;;;;;;;10.01;56.93;98611.53;4885252;29;20389;-82
2024/01/06 03:04:39;;;;;;;5.60;2.85;;;;;;;10.08;56.77;98612.16;4897670;29;20472;-83
2024/01/06 03:07:24;;;;;;;8.43;3.15;;;;;;;10.08;56.44;98604.19;4898523;29;20344;-84
2024/01/06 03:10:10;;;;;;;9.43;4.03;;;;;;;9.94;57.36;98611.69;4905713;29;20062;-82
2024/01/06 03:12:55;;;;;;;11.30;4.50;;;;;;;9.84;58.29;98598.25;4877792;29;20050;-83
2024/01/06 03:15:41;;;;;;;10.82;5.07;;;;;;;9.61;59.17;98603.66;4898461;29;20389;-81
2024/01/06 03:18:26;;;;;;;5.82;3.03;;;;;;;9.47;59.79;98595.22;4899391;29;20497;-82
2024/01/06 03:21:18;;;;;;;7.32;4.03;;;;;;;9.37;59.63;98587.88;4885032;29;20079;-84
2024/01/06 03:24:04;;;;;;;8.95;3.38;;;;;;;9.50;59.07;98578.81;4892154;29;20047;-84
2024/01/06 03:26:50;;;;;;;6.90;3.03;;;;;;;9.66;57.81;98586.00;4885495;29;20063;-84
2024/01/06 03:29:35;;;;;;;6.68;3.58;;;;;;;9.65;58.24;98579.09;4885215;29;20059;-83
2024/01/06 03:32:21;;;;;;;8.20;3.55;;;;;;;9.60;58.59;98586.16;4885110;29;20051;-82
2024/01/06 03:35:06;;;;;;;8.07;3.97;;;;;;;9.57;58.60;98587.44;4878635;29;20051;-84
2024/01/06 03:37:52;;;;;;;4.40;2.72;;;;;;;9.70;57.18;98578.34;4906106;29;20063;-81
2024/01/06 03:40:37;;;;;;;7.00;3.65;;;;;;;9.67;58.29;98579.63;4878528;29;20508;-82
2024/01/06 03:43:23;;;;;;;4.53;2.72;;;;;;;9.67;58.11;98566.38;4897951;29;20397;-84
2024/01/06 03:46:08;;;;;;;4.70;2.30;;;;;;;9.85;57.12;98557.38;4898250;29;20498;-83
2024/01/06 03:48:54;;;;;;;4.50;2.20;;;;;;;10.03;56.63;98550.22;4904456;29;20051;-80
2024/01/06 03:51:39;;;;;;;4.55;2.38;;;;;;;10.04;56.70;98549.19;4897307;29;20062;-83
2024/01/06 03:54:24;;;;;;;6.13;3.17;;;;;;;9.96;56.50;98542.41;4907966;29;20046;-81
2024/01/06 03:57:10;;;;;;;10.90;4.30;;;;;;;9.64;58.68;98550.94;4900140;29;20062;-84
2024/01/06 03:59:55;;;;;;;6.88;3.78;;;;;;;9.11;61.70;98541.50;4875421;29;20392;-81
2024/01/06 04:02:41;;;;;;;14.93;4.47;;;;;;;8.86;62.97;98546.31;4900877;29;20055;-83
2024/01/06 04:05:26;;;;;;;8.10;4.53;;;;;;;8.72;63.20;98551.88;4901704;29;20397;-83
2024/01/06 04:08:11;;;;;;;13.95;6.07;;;;;;;8.79;63.20;98551.75;4894790;29;20055;-83
2024/01/06 04:10:57;;;;;;;8.45;3.70;;;;;;;8.69;63.63;98544.41;4900957;29;20066;-82
2024/01/06 04:13:42;;;;;;;8.70;4.65;;;;;;;8.55;64.18;98537.75;4903244;29;20324;-82
2024/01/06 04:16:28;;;;;;;6.00;3.38;;;;;;;8.57;64.47;98535.69;4902564;29;20046;-81
2024/01/06 04:19:15;;;;;;;8.10;4.13;;;;;;;8.68;63.47;98534.84;4898757;29;20051;-85
2024/01/06 04:22:00;;;;;;;7.45;3.50;;;;;;;8.63;63.78;98524.16;4907815;29;20717;-81
2024/01/06 04:24:45;;;;;;;8.00;4.50;;;;;;;8.63;64.33;98502.97;4881120;29;20102;-82
2024/01/06 04:27:31;;;;;;;6.15;3.08;;;;;;;8.83;63.09;98499.09;4901805;29;20055;-82
2024/01/06 04:30:17;;;;;;;7.15;3.58;;;;;;;9.07;61.84;98524.47;4903559;29;20512;-84
2024/01/06 04:33:02;;;;;;;8.52;4.68;;;;;;;9.06;62.38;98525.53;4908967;29;20075;-83
2024/01/06 04:35:50;;;;;;;7.65;2.65;;;;;;;9.20;61.28;98508.28;4901205;29;20394;-84
2024/01/06 04:38:35;;;;;;;8.15;3.88;;;;;;;9.19;61.56;98511.97;4882182;29;20511;-85
2024/01/06 04:41:21;;;;;;;7.95;3.25;;;;;;;9.24;60.76;98511.25;4903058;29;20409;-84
2024/01/06 04:44:06;;;;;;;8.73;3.45;;;;;;;9.42;60.58;98523.50;4903083;29;20055;-85
2024/01/06 04:46:51;;;;;;;7.95;4.32;;;;;;;9.44;59.80;98524.88;4913082;29;20051;-82
2024/01/06 04:49:36;;;;;;;14.05;6.30;;;;;;;9.58;59.30;98519.25;4899457;29;20472;-82
2024/01/06 04:52:22;;;;;;;4.00;2.50;;;;;;;9.64;59.39;98519.09;4905733;29;20047;-84
2024/01/06 04:55:08;;;;;;;10.75;5.88;;;;;;;9.62;60.43;98507.94;4896569;29;20491;-82
2024/01/06 04:57:52;;;;;;;14.13;6.75;;;;;;;9.66;59.96;98511.72;4893336;29;20046;-81
2024/01/06 05:00:37;;;;;;;6.10;3.17;;;;;;;9.85;59.07;98496.34;4898579;29;20067;-83
2024/01/06 05:03:23;;;;;;;6.25;2.95;;;;;;;10.30;58.32;98495.41;4894195;29;20039;-83
2024/01/06 05:06:08;;;;;;;5.78;2.30;;;;;;;11.09;56.09;98495.03;4899831;29;20409;-84
2024/01/06 05:08:54;;;;;;;5.38;3.30;;;;;;;11.35;56.49;98495.28;4892344;29;20039;-84
2024/01/06 05:11:40;;;;;;;7.18;3.90;;;;;;;11.01;57.25;98511.44;4886409;29;20078;-82
2024/01/06 05:14:25;;;;;;;11.88;3.75;;;;;;;10.62;57.23;98503.56;4893793;29;20429;-82
2024/01/06 05:17:10;;;;;;;2.38;1.85;;;;;;;10.88;55.99;98501.97;4885973;29;20429;-81
2024/01/06 05:19:55;;;;;;;4.88;2.35;;;;;;;10.81;57.11;98501.38;4886978;29;20074;-84
2024/01/06 05:22:41;;;;;;;11.40;6.30;;;;;;;10.89;56.45;98492.16;4908039;29;20055;-83
2024/01/06 05:25:27;;;;;;;9.35;6.25;;;;;;;10.98;57.12;98490.66;4897418;29;20385;-84
2024/01/06 05:28:12;;;;;;;9.45;4.95;;;;;;;10.68;57.81;98492.97;4880812;29;20060;-81
2024/01/06 05:30:58;;;;;;;7.35;4.03;;;;;;;10.32;58.75;98492.53;4904405;29;20566;-82
2024/01/06 05:33:43;;;;;;;9.88;4.80;;;;;;;10.07;58.83;98492.94;4898826;29;20412;-82
2024/01/06 05:36:29;;;;;;;9.55;4.55;;;;;;;9.92;59.75;98498.84;4900470;29;20070;-80
2024/01/06 05:39:14;;;;;;;11.00;4.05;;;;;;;9.75;59.95;98498.06;4880269;29;20043;-82
2024/01/06 05:42:00;;;;;;;11.70;5.32;;;;;;;9.70;59.73;98502.22;4900326;29;20058;-82
2024/01/06 05:44:45;;;;;;;8.68;5.07;;;;;;;9.77;58.92;98493.28;4900377;29;20473;-84
2024/01/06 05:47:31;;;;;;;9.48;5.20;;;;;;;9.75;60.07;98498.06;4902018;29;20050;-82
2024/01/06 05:50:17;;;;;;;12.32;5.63;;;;;;;9.66;60.70;98489.69;4899976;29;20047;-83
2024/01/06 05:53:03;;;;;;;10.30;4.97;;;;;;;9.77;60.15;98485.34;4899581;29;20396;-82
2024/01/06 05:55:48;;;;;;;6.28;2.55;;;;;;;10.00;59.78;98485.16;4899875;29;20474;-83
2024/01/06 05:58:33;;;;;;;5.68;2.03;;;;;;;10.58;57.27;98491.00;4898148;29;20051;-83
2024/01/06 06:01:20;;;;;;;7.28;2.80;;;;;;;10.79;56.92;98490.19;4901073;29;20091;-82
2024/01/06 06:04:04;;;;;;;6.82;3.22;;;;;;;10.80;57.03;98498.94;4886493;29;20384;-82
2024/01/06 06:06:49;;;;;;;6.60;3.15;;;;;;;10.72;56.88;98486.91;4906852;29;20066;-83
2024/01/06 06:09:35;;;;;;;5.95;3.47;;;;;;;10.77;57.96;98478.97;4907630;29;20377;-83
2024/01/06 06:12:21;;;;;;;14.75;7.45;;;;;;;10.73;57.70;98464.59;4907280;29;20098;-80
2024/01/06 06:15:07;;;;;;;6.70;2.90;;;;;;;11.69;54.83;98461.22;4886033;29;20047;-82
2024/01/06 06:17:52;;;;;;;10.90;5.00;;;;;;;11.62;54.72;98457.16;4900639;29;20137;-82
2024/01/06 06:20:38;;;;;;;6.65;4.97;;;;;;;12.03;53.81;98455.59;4906720;29;20496;-83
2024/01/06 06:23:24;;;;;;;10.93;4.32;;;;;;;11.87;54.80;98459.25;4894255;29;20491;-81
2024/01/06 06:26:11;;;;;;;13.40;4.25;;;;;;;11.59;55.78;98458.47;4901176;29;20071;-81
2024/01/06 06:28:57;;;;;;;15.20;3.28;;;;;;;12.16;53.28;98449.00;4900836;29;20493;-81
2024/01/06 06:31:44;;;;;;;4.10;2.50;;;;;;;12.35;53.37;98450.19;4892216;29;20477;-81
2024/01/06 06:34:29;;;;;;;4.72;2.60;;;;;;;12.38;52.45;98441.69;4900479;29;20480;-81
2024/01/06 06:37:15;;;;;;;4.80;2.42;;;;;;;12.40;51.80;98450.19;4886800;29;20405;-83
2024/01/06 06:40:01;;;;;;;3.78;2.63;;;;;;;12.45;52.17;98457.44;4907417;29;20381;-82
2024/01/06 06:42:46;;;;;;;8.40;3.63;;;;;;;12.50;52.09;98457.44;4903613;29;20058;-81
2024/01/06 06:45:30;;;;;;;9.68;3.60;;;;;;;12.39;52.25;98456.59;4913790;29;20051;-83
2024/01/06 06:48:16;;;;;;;7.95;3.05;;;;;;;12.45;51.90;98470.75;4902231;29;20071;-82
2024/01/06 06:51:02;;;;;;;7.72;3.20;;;;;;;12.35;52.02;98471.50;4887219;29;20070;-84
2024/01/06 06:53:47;;;;;;;13.50;4.60;;;;;;;12.30;52.36;98465.34;4891483;29;20488;-84
2024/01/06 06:56:33;;;;;;;26.33;12.00;;;;;;;11.69;53.95;98474.53;4897974;29;20841;-83
2024/01/06 06:59:18;;;;;;;32.25;13.60;;;;;;;11.27;55.17;98479.75;4899056;29;20374;-84
2024/01/06 07:02:03;;;;;;;40.97;19.27;;;;;;;10.80;57.94;98488.31;4903872;29;20713;-83
2024/01/06 07:04:49;;;;;;;45.70;21.80;;;;;;;10.36;59.40;98488.31;4896899;29;20377;-81
2024/01/06 07:07:34;;;;;;;43.47;22.00;;;;;;;10.20;59.17;98496.06;4899716;29;20078;-83
2024/01/06 07:10:20;;;;;;;43.00;24.25;;;;;;;10.01;61.25;98481.44;4904933;29;20066;-83
2024/01/06 07:13:05;;;;;;;35.75;15.80;;;;;;;10.10;60.35;98489.81;4901128;29;20381;-84
2024/01/06 07:15:51;;;;;;;24.35;10.65;;;;;;;10.14;59.57;98486.41;4887146;29;20477;-80
2024/01/06 07:18:36;;;;;;;16.90;7.10;;;;;;;10.57;57.49;98486.75;4888093;29;20489;-82
2024/01/06 07:21:23;;;;;;;14.18;6.97;;;;;;;10.70;57.14;98493.53;4904177;29;20051;-82
2024/01/06 07:24:09;;;;;;;26.38;11.52;;;;;;;10.82;56.66;98488.88;4901644;29;20059;-83
2024/01/06 07:26:54;;;;;;;48.17;18.33;;;;;;;10.68;58.35;98503.59;4899005;29;20079;-83
2024/01/06 07:29:40;;;;;;;22.15;11.23;;;;;;;10.70;56.70;98488.22;4896225;29;20042;-82
2024/01/06 07:32:25;;;;;;;52.40;23.73;;;;;;;10.52;58.78;98494.63;4905776;29;20476;-83
2024/01/06 07:35:11;;;;;;;50.92;26.25;;;;;;;10.31;59.91;98494.38;4881740;29;20866;-84
2024/01/06 07:37:56;;;;;;;44.40;22.42;;;;;;;10.37;58.85;98504.03;4903269;29;20071;-83
2024/01/06 07:40:44;;;;;;;36.95;19.45;;;;;;;10.40;59.12;98490.25;4901859;29;20054;-85
2024/01/06 07:43:29;;;;;;;50.45;28.63;;;;;;;10.31;60.95;98501.53;4896512;29;20390;-81
2024/01/06 07:46:15;;;;;;;87.80;28.20;;;;;;;10.37;59.31;98497.88;4910753;29;20058;-82
2024/01/06 07:49:00;;;;;;;47.78;26.70;;;;;;;10.48;59.06;98496.97;4903540;29;20051;-83
2024/01/06 07:51:46;;;;;;;28.48;17.02;;;;;;;10.62;57.87;98505.38;4911958;29;20390;-85
2024/01/06 07:54:31;;;;;;;35.65;16.38;;;;;;;10.73;58.40;98504.47;4881431;29;20063;-83
2024/01/06 07:57:16;;;;;;;21.25;10.80;;;;;;;10.95;57.08;98506.31;4901874;29;20486;-82
2024/01/06 08:00:02;;;;;;;23.67;12.13;;;;;;;11.04;57.25;98507.47;4891826;29;20090;-82
2024/01/06 08:02:57;;;;;;;46.33;18.38;;;;;;;11.51;55.70;98507.66;4902517;29;20446;-85
2024/01/06 08:05:43;;;;;;;29.35;14.40;;;;;;;11.48;55.01;98505.50;4904318;29;20376;-86
2024/01/06 08:08:28;;;;;;;34.92;18.00;;;;;;;11.37;56.53;98497.66;4893293;29;20035;-84
2024/01/06 08:11:13;;;;;;;35.00;13.45;;;;;;;11.32;56.93;98501.91;4905839;29;20082;-82
2024/01/06 08:13:59;;;;;;;37.92;17.13;;;;;;;11.37;57.23;98498.47;4913011;29;20440;-82
2024/01/06 08:16:44;;;;;;;46.67;22.27;;;;;;;11.24;57.37;98493.56;4861614;29;20058;-84
2024/01/06 08:19:32;;;;;;;35.25;20.15;;;;;;;11.11;57.35;98495.56;4900788;29;20079;-84
2024/01/06 08:22:17;;;;;;;33.90;16.50;;;;;;;11.27;56.73;98493.06;4881955;29;20066;-85
2024/01/06 08:25:03;;;;;;;55.45;25.60;;;;;;;11.28;57.51;98499.97;4892615;29;20106;-81
2024/01/06 08:27:48;;;;;;;36.92;17.65;;;;;;;11.47;56.41;98487.94;4909159;29;20468;-83
2024/01/06 08:30:34;;;;;;;33.72;16.05;;;;;;;11.60;57.46;98491.25;4905171;29;20397;-86
2024/01/06 08:33:20;;;;;;;22.73;11.65;;;;;;;11.66;55.37;98479.53;4902309;29;20074;-84
2024/01/06 08:36:05;;;;;;;15.02;7.03;;;;;;;11.82;54.74;98483.94;4877339;29;20520;-84
2024/01/06 08:38:51;;;;;;;36.13;18.00;;;;;;;11.95;55.82;98488.84;4898775;29;20443;-84
2024/01/06 08:41:48;;;;;;;18.25;9.02;;;;;;;11.95;55.66;98480.88;4903491;29;20082;-86
2024/01/06 08:44:40;;;;;;;12.05;4.78;;;;;;;12.17;53.31;98470.09;4899604;29;20472;-84
2024/01/06 08:47:30;;;;;;;9.45;4.95;;;;;;;12.24;53.30;98453.84;4892832;29;20385;-88
2024/01/06 08:50:17;;;;;;;12.52;5.20;;;;;;;12.40;53.43;98463.53;4902482;29;20508;-84
2024/01/06 08:53:05;;;;;;;13.68;4.75;;;;;;;12.54;52.70;98466.53;4899999;29;20406;-84
2024/01/06 08:55:51;;;;;;;8.32;4.05;;;;;;;12.64;52.10;98457.78;4875108;29;20477;-88
2024/01/06 08:58:37;;;;;;;9.25;4.90;;;;;;;12.53;52.59;98448.13;4876704;29;20055;-86
2024/01/06 09:01:22;;;;;;;12.15;5.43;;;;;;;12.70;52.39;98446.06;4905928;29;20393;-84
2024/01/06 09:04:11;;;;;;;8.38;4.00;;;;;;;12.76;52.56;98452.22;4902199;29;20504;-84
2024/01/06 09:06:56;;;;;;;8.90;3.47;;;;;;;12.85;51.92;98439.94;4898224;29;20398;-83
2024/01/06 09:09:44;;;;;;;9.50;3.92;;;;;;;12.85;51.93;98443.44;4865582;29;20477;-83
2024/01/06 09:12:29;;;;;;;11.60;4.65;;;;;;;12.92;52.39;98427.97;4859879;29;20059;-83
2024/01/06 09:15:15;;;;;;;12.57;4.45;;;;;;;13.06;51.71;98425.59;4880105;29;20055;-82
2024/01/06 09:18:01;;;;;;;12.52;5.40;;;;;;;13.04;52.54;98429.59;4871364;29;20067;-84
2024/01/06 09:20:49;;;;;;;12.02;4.78;;;;;;;13.15;51.54;98417.88;4890439;29;20067;-83
2024/01/06 09:23:35;;;;;;;20.80;8.98;;;;;;;13.20;52.10;98412.53;4874805;29;20051;-81
2024/01/06 09:26:20;;;;;;;27.67;12.45;;;;;;;13.26;51.77;98413.38;4883741;29;20051;-85
2024/01/06 09:29:06;;;;;;;34.10;6.78;;;;;;;13.32;51.79;98410.44;4889746;29;20051;-83
2024/01/06 09:31:52;;;;;;;65.15;27.92;;;;;;;13.53;51.63;98403.19;4886867;29;20079;-84
2024/01/06 09:34:37;;;;;;;264.88;95.45;;;;;;;13.74;50.76;98403.19;4874963;29;20501;-85
2024/01/06 09:37:25;;;;;;;67.10;36.78;;;;;;;13.62;51.76;98403.47;4866298;29;20048;-83
2024/01/06 09:40:14;;;;;;;29.77;16.42;;;;;;;13.78;50.66;98388.22;4865596;29;20490;-84
2024/01/06 09:43:05;;;;;;;24.52;10.00;;;;;;;13.82;50.67;98387.44;4861324;29;20478;-87
2024/01/06 09:46:24;;;;;;;10.75;7.05;;;;;;;14.02;50.22;98396.44;4877744;29;20481;-86
2024/01/06 09:50:11;;;;;;;12.18;4.88;;;;;;;14.11;49.52;98389.47;4884410;29;20047;-87
2024/01/06 09:53:20;;;;;;;12.13;5.40;;;;;;;14.08;49.52;98379.31;4867331;29;20405;-86
2024/01/06 09:56:25;;;;;;;92.55;60.85;;;;;;;14.14;50.09;98380.91;4856798;29;20386;-86
2024/01/06 09:59:19;;;;;;;11.30;5.95;;;;;;;14.07;49.75;98367.03;4863647;29;20392;-86
2024/01/06 10:02:41;;;;;;;13.32;5.20;;;;;;;14.18;49.58;98362.44;4874366;29;20398;-86
2024/01/06 10:05:40;;;;;;;;;;;;;;;;;;;;;
2024/01/06 10:08:26;;;;;;;20.23;10.63;;;;;;;14.29;49.56;98359.47;4880098;29;20096;-83
2024/01/06 10:11:15;;;;;;;12.75;7.68;;;;;;;14.21;48.94;98361.91;4885536;29;20075;-85
2024/01/06 10:14:03;;;;;;;35.03;18.27;;;;;;;14.06;50.65;98365.44;4885746;29;20044;-85
2024/01/06 10:16:50;;;;;;;27.77;12.48;;;;;;;14.12;49.18;98364.34;4868922;29;20059;-87
2024/01/06 10:19:38;;;;;;;20.75;9.48;;;;;;;14.05;49.80;98363.84;4858994;29;20053;-85
2024/01/06 10:22:23;;;;;;;26.25;14.23;;;;;;;13.81;51.21;98358.31;4869247;29;20588;-85
2024/01/06 10:25:10;;;;;;;27.63;12.00;;;;;;;13.88;50.96;98370.31;4860219;29;20051;-86
2024/01/06 10:28:01;;;;;;;23.42;12.75;;;;;;;13.60;50.98;98357.53;4859124;29;20063;-84
2024/01/06 10:30:48;;;;;;;43.28;15.93;;;;;;;13.39;51.88;98360.25;4876438;29;20389;-84
2024/01/06 10:33:33;;;;;;;36.08;13.77;;;;;;;13.09;52.74;98357.56;4885377;29;20072;-84
2024/01/06 10:36:19;;;;;;;15.45;7.25;;;;;;;13.10;52.10;98354.66;4885033;29;20047;-86
2024/01/06 10:39:10;;;;;;;22.50;10.88;;;;;;;13.05;52.14;98345.84;4879951;29;20051;-85
2024/01/06 10:41:56;;;;;;;13.55;7.18;;;;;;;12.90;53.28;98336.75;4883708;29;20477;-84
2024/01/06 10:44:42;;;;;;;20.52;9.75;;;;;;;12.81;53.80;98337.56;4891092;29;20394;-86
2024/01/06 10:47:32;;;;;;;21.48;8.93;;;;;;;12.71;53.76;98330.34;4891351;29;20071;-85
2024/01/06 10:50:17;;;;;;;23.20;10.82;;;;;;;12.64;54.09;98325.28;4883610;29;20060;-85
2024/01/06 10:53:03;;;;;;;29.45;13.68;;;;;;;12.55;54.68;98323.41;4861142;29;20067;-88
2024/01/06 10:55:50;;;;;;;19.25;10.00;;;;;;;12.57;54.16;98321.28;4856852;29;20604;-85
2024/01/06 10:58:37;;;;;;;18.95;9.93;;;;;;;12.44;55.04;98331.41;4865418;29;20052;-83
2024/01/06 11:01:26;;;;;;;14.65;7.20;;;;;;;12.39;55.10;98312.72;4857677;29;20071;-85
2024/01/06 11:04:13;;;;;;;21.13;11.00;;;;;;;12.37;55.36;98312.16;4863886;29;20386;-83
2024/01/06 11:06:58;;;;;;;9.93;5.57;;;;;;;12.29;56.04;98301.25;4885081;29;20070;-85
2024/01/06 11:09:51;;;;;;;8.65;4.75;;;;;;;12.23;56.05;98303.09;4875665;29;20060;-85
2024/01/06 11:12:36;;;;;;;14.13;6.10;;;;;;;12.21;55.90;98300.69;4864092;29;20059;-83
2024/01/06 11:15:39;;;;;;;11.98;7.15;;;;;;;12.11;56.76;98291.88;4896929;29;20101;-82
2024/01/06 11:18:39;;;;;;;14.18;7.18;;;;;;;12.10;56.49;98287.63;4876422;29;20051;-83
2024/01/06 11:21:25;;;;;;;18.63;8.65;;;;;;;12.07;56.89;98277.50;4888890;29;20059;-85
2024/01/06 11:24:15;;;;;;;13.13;6.78;;;;;;;12.08;56.97;98273.75;4868154;29;20500;-82
2024/01/06 11:27:01;;;;;;;10.95;6.57;;;;;;;12.07;57.33;98274.81;4867213;29;20051;-84
2024/01/06 11:29:47;;;;;;;11.95;6.95;;;;;;;11.99;57.00;98271.59;4882345;29;20080;-83
2024/01/06 11:32:38;;;;;;;14.05;6.70;;;;;;;12.02;57.50;98264.94;4874259;29;20055;-81
2024/01/06 11:35:23;;;;;;;14.30;6.88;;;;;;;12.01;57.31;98269.47;4882226;29;20489;-83
2024/01/06 11:38:12;;;;;;;17.85;8.32;;;;;;;12.03;57.78;98259.38;4875278;29;20051;-82
2024/01/06 11:40:57;;;;;;;16.92;6.95;;;;;;;12.04;57.43;98263.63;4880262;29;20055;-83
2024/01/06 11:43:46;;;;;;;14.98;7.50;;;;;;;12.04;58.12;98244.19;4869768;29;20048;-85
2024/01/06 11:46:31;;;;;;;11.73;6.75;;;;;;;11.99;58.32;98244.97;4873784;29;20048;-82
2024/01/06 11:49:19;;;;;;;9.15;5.28;;;;;;;12.04;57.72;98242.31;4883740;29;20051;-84
2024/01/06 11:52:05;;;;;;;18.52;8.75;;;;;;;11.99;59.01;98231.66;4890775;29;20166;-85
2024/01/06 11:54:51;;;;;;;17.85;6.60;;;;;;;12.00;58.83;98241.25;4859884;29;20576;-85
2024/01/06 11:57:37;;;;;;;15.02;7.20;;;;;;;12.07;58.55;98224.22;4877046;29;20047;-84
2024/01/06 12:00:28;;;;;;;17.65;8.55;;;;;;;12.08;58.79;98221.28;4870977;29;21010;-86
2024/01/06 12:03:16;;;;;;;13.30;7.03;;;;;;;12.14;58.19;98219.44;4858306;29;20374;-84
2024/01/06 12:06:02;;;;;;;15.10;7.60;;;;;;;12.17;58.59;98221.56;4866777;29;20067;-84
2024/01/06 12:08:48;;;;;;;13.93;7.80;;;;;;;12.26;57.87;98212.00;4872044;29;20047;-83
2024/01/06 12:11:33;;;;;;;15.43;9.07;;;;;;;12.25;57.99;98207.72;4875368;29;20061;-83
2024/01/06 12:14:18;;;;;;;18.85;10.82;;;;;;;12.27;57.71;98206.41;4867655;29;20051;-86
2024/01/06 12:17:04;;;;;;;20.05;10.80;;;;;;;12.37;57.45;98218.13;4875596;29;20394;-83
2024/01/06 12:19:49;;;;;;;21.65;8.95;;;;;;;12.32;57.58;98218.94;4871703;29;20382;-84
2024/01/06 12:22:36;;;;;;;16.35;8.20;;;;;;;12.27;57.67;98210.94;4878921;29;20071;-83
2024/01/06 12:25:22;;;;;;;18.65;12.13;;;;;;;12.23;58.42;98213.31;4873157;29;20036;-81
2024/01/06 12:28:07;;;;;;;21.63;9.27;;;;;;;12.27;57.76;98210.94;4876388;29;20393;-83
2024/01/06 12:30:54;;;;;;;17.00;10.77;;;;;;;12.30;58.11;98212.25;4859556;29;20079;-83
2024/01/06 12:33:40;;;;;;;18.83;9.48;;;;;;;12.52;56.77;98202.16;4873990;29;20048;-85
2024/01/06 12:36:25;;;;;;;21.67;11.02;;;;;;;12.59;56.53;98202.66;4893972;29;20389;-83
2024/01/06 12:39:14;;;;;;;21.23;11.45;;;;;;;12.56;57.82;98205.88;4887069;29;20056;-84
2024/01/06 12:42:01;;;;;;;19.38;8.60;;;;;;;12.51;57.55;98197.88;4853848;29;20059;-85
2024/01/06 12:44:46;;;;;;;19.88;10.60;;;;;;;12.48;58.02;98209.88;4878249;29;20059;-84
2024/01/06 12:47:33;;;;;;;24.88;11.57;;;;;;;12.51;58.21;98203.22;4876915;29;20481;-83
2024/01/06 12:50:19;;;;;;;26.48;13.65;;;;;;;12.59;58.00;98204.53;4885345;29;20421;-84
2024/01/06 12:53:04;;;;;;;30.35;15.60;;;;;;;12.60;58.74;98198.94;4885234;29;20076;-83
2024/01/06 12:55:50;;;;;;;28.02;14.48;;;;;;;12.58;58.72;98195.75;4874364;29;20433;-86
2024/01/06 12:58:35;;;;;;;34.33;18.00;;;;;;;12.55;58.55;98198.94;4870844;29;20402;-85
2024/01/06 13:01:21;;;;;;;25.85;13.93;;;;;;;12.56;59.36;98194.41;4872387;29;20071;-84